sensor_id;sensor_type;location;lat;lon;timestamp;P1;durP1;ratioP1;P2;durP2;ratioP2
68377;SDS011;55322;48.146;11.516;2023-08-24T00:00:28;9.80;;;6.17;;
68377;SDS011;55322;48.146;11.516;2023-08-24T00:02:53;13.83;;;6.93;;
68377;SDS011;55322;48.146;11.516;2023-08-24T00:05:19;12.17;;;6.40;;
68377;SDS011;55322;48.146;11.516;2023-08-24T00:07:45;9.98;;;6.10;;
68377;SDS011;55322;48.146;11.516;2023-08-24T00:10:13;10.02;;;5.93;;
68377;SDS011;55322;48.146;11.516;2023-08-24T00:12:38;12.20;;;6.23;;
68377;SDS011;55322;48.146;11.516;2023-08-24T00:15:04;10.32;;;6.18;;
68377;SDS011;55322;48.146;11.516;2023-08-24T00:17:33;13.18;;;6.53;;
68377;SDS011;55322;48.146;11.516;2023-08-24T00:19:59;15.27;;;6.10;;
68377;SDS011;55322;48.146;11.516;2023-08-24T00:22:24;10.40;;;5.67;;
68377;SDS011;55322;48.146;11.516;2023-08-24T00:24:50;10.33;;;6.40;;
68377;SDS011;55322;48.146;11.516;2023-08-24T00:27:15;9.40;;;4.90;;
68377;SDS011;55322;48.146;11.516;2023-08-24T00:29:40;9.18;;;5.00;;
68377;SDS011;55322;48.146;11.516;2023-08-24T00:32:06;14.07;;;6.47;;
68377;SDS011;55322;48.146;11.516;2023-08-24T00:34:31;21.83;;;16.27;;
68377;SDS011;55322;48.146;11.516;2023-08-24T00:36:56;13.27;;;7.80;;
68377;SDS011;55322;48.146;11.516;2023-08-24T00:39:22;223.50;;;19.73;;
68377;SDS011;55322;48.146;11.516;2023-08-24T00:41:47;10.97;;;7.00;;
68377;SDS011;55322;48.146;11.516;2023-08-24T00:44:12;12.93;;;6.80;;
68377;SDS011;55322;48.146;11.516;2023-08-24T00:46:37;21.50;;;11.98;;
68377;SDS011;55322;48.146;11.516;2023-08-24T00:49:03;10.97;;;6.57;;
68377;SDS011;55322;48.146;11.516;2023-08-24T00:51:29;11.87;;;6.63;;
68377;SDS011;55322;48.146;11.516;2023-08-24T00:53:54;12.57;;;11.38;;
68377;SDS011;55322;48.146;11.516;2023-08-24T00:56:22;10.30;;;6.13;;
68377;SDS011;55322;48.146;11.516;2023-08-24T00:58:49;14.52;;;6.45;;
68377;SDS011;55322;48.146;11.516;2023-08-24T01:01:15;11.32;;;6.05;;
68377;SDS011;55322;48.146;11.516;2023-08-24T01:03:42;10.32;;;6.05;;
68377;SDS011;55322;48.146;11.516;2023-08-24T01:06:08;11.20;;;5.93;;
68377;SDS011;55322;48.146;11.516;2023-08-24T01:08:33;12.10;;;6.27;;
68377;SDS011;55322;48.146;11.516;2023-08-24T01:10:59;12.10;;;6.50;;
68377;SDS011;55322;48.146;11.516;2023-08-24T01:13:38;10.55;;;6.45;;
68377;SDS011;55322;48.146;11.516;2023-08-24T01:16:13;12.50;;;6.88;;
68377;SDS011;55322;48.146;11.516;2023-08-24T01:18:43;12.00;;;6.05;;
68377;SDS011;55322;48.146;11.516;2023-08-24T01:21:09;10.30;;;5.78;;
68377;SDS011;55322;48.146;11.516;2023-08-24T01:23:43;8.83;;;5.87;;
68377;SDS011;55322;48.146;11.516;2023-08-24T01:26:14;11.93;;;5.93;;
68377;SDS011;55322;48.146;11.516;2023-08-24T01:28:43;9.75;;;5.65;;
68377;SDS011;55322;48.146;11.516;2023-08-24T01:31:09;12.02;;;6.05;;
68377;SDS011;55322;48.146;11.516;2023-08-24T01:33:34;9.27;;;5.83;;
68377;SDS011;55322;48.146;11.516;2023-08-24T01:36:00;10.27;;;5.83;;
68377;SDS011;55322;48.146;11.516;2023-08-24T01:38:26;9.52;;;5.82;;
68377;SDS011;55322;48.146;11.516;2023-08-24T01:43:51;11.05;;;6.10;;
68377;SDS011;55322;48.146;11.516;2023-08-24T01:46:19;13.90;;;6.10;;
68377;SDS011;55322;48.146;11.516;2023-08-24T01:48:46;10.20;;;5.80;;
68377;SDS011;55322;48.146;11.516;2023-08-24T01:51:13;10.48;;;5.63;;
68377;SDS011;55322;48.146;11.516;2023-08-24T01:53:39;11.93;;;6.03;;
68377;SDS011;55322;48.146;11.516;2023-08-24T01:56:11;11.77;;;6.47;;
68377;SDS011;55322;48.146;11.516;2023-08-24T01:58:38;10.35;;;5.75;;
68377;SDS011;55322;48.146;11.516;2023-08-24T02:01:04;12.32;;;6.28;;
68377;SDS011;55322;48.146;11.516;2023-08-24T02:03:30;10.50;;;5.80;;
68377;SDS011;55322;48.146;11.516;2023-08-24T02:05:56;10.10;;;6.07;;
68377;SDS011;55322;48.146;11.516;2023-08-24T02:08:21;10.65;;;6.13;;
68377;SDS011;55322;48.146;11.516;2023-08-24T02:10:46;9.07;;;5.63;;
68377;SDS011;55322;48.146;11.516;2023-08-24T02:13:12;12.80;;;6.17;;
68377;SDS011;55322;48.146;11.516;2023-08-24T02:15:37;9.70;;;5.77;;
68377;SDS011;55322;48.146;11.516;2023-08-24T02:18:04;9.93;;;6.13;;
68377;SDS011;55322;48.146;11.516;2023-08-24T02:20:30;10.80;;;5.87;;
68377;SDS011;55322;48.146;11.516;2023-08-24T02:22:55;11.13;;;6.13;;
68377;SDS011;55322;48.146;11.516;2023-08-24T02:25:20;10.93;;;6.53;;
68377;SDS011;55322;48.146;11.516;2023-08-24T02:27:46;10.57;;;5.73;;
68377;SDS011;55322;48.146;11.516;2023-08-24T02:30:11;11.27;;;5.60;;
68377;SDS011;55322;48.146;11.516;2023-08-24T02:32:37;9.60;;;6.13;;
68377;SDS011;55322;48.146;11.516;2023-08-24T02:35:03;10.20;;;6.53;;
68377;SDS011;55322;48.146;11.516;2023-08-24T02:37:28;9.83;;;5.93;;
68377;SDS011;55322;48.146;11.516;2023-08-24T02:39:53;11.47;;;6.03;;
68377;SDS011;55322;48.146;11.516;2023-08-24T02:42:19;9.83;;;6.10;;
68377;SDS011;55322;48.146;11.516;2023-08-24T02:44:44;11.40;;;6.00;;
68377;SDS011;55322;48.146;11.516;2023-08-24T02:47:09;11.10;;;5.57;;
68377;SDS011;55322;48.146;11.516;2023-08-24T02:49:35;10.73;;;6.00;;
68377;SDS011;55322;48.146;11.516;2023-08-24T02:52:00;11.57;;;5.93;;
68377;SDS011;55322;48.146;11.516;2023-08-24T02:54:25;9.63;;;6.30;;
68377;SDS011;55322;48.146;11.516;2023-08-24T02:56:51;10.30;;;6.40;;
68377;SDS011;55322;48.146;11.516;2023-08-24T02:59:16;10.47;;;6.30;;
68377;SDS011;55322;48.146;11.516;2023-08-24T03:01:41;10.17;;;6.17;;
68377;SDS011;55322;48.146;11.516;2023-08-24T03:04:07;10.57;;;6.10;;
68377;SDS011;55322;48.146;11.516;2023-08-24T03:06:32;9.33;;;5.60;;
68377;SDS011;55322;48.146;11.516;2023-08-24T03:08:59;12.33;;;5.83;;
68377;SDS011;55322;48.146;11.516;2023-08-24T03:11:25;9.82;;;6.20;;
68377;SDS011;55322;48.146;11.516;2023-08-24T03:13:50;12.33;;;6.10;;
68377;SDS011;55322;48.146;11.516;2023-08-24T03:16:16;9.80;;;5.97;;
68377;SDS011;55322;48.146;11.516;2023-08-24T03:18:41;10.37;;;6.50;;
68377;SDS011;55322;48.146;11.516;2023-08-24T03:21:06;11.77;;;6.43;;
68377;SDS011;55322;48.146;11.516;2023-08-24T03:23:32;10.83;;;6.00;;
68377;SDS011;55322;48.146;11.516;2023-08-24T03:25:57;9.77;;;6.27;;
68377;SDS011;55322;48.146;11.516;2023-08-24T03:28:22;11.55;;;6.45;;
68377;SDS011;55322;48.146;11.516;2023-08-24T03:30:48;10.00;;;6.07;;
68377;SDS011;55322;48.146;11.516;2023-08-24T03:33:15;10.47;;;5.80;;
68377;SDS011;55322;48.146;11.516;2023-08-24T03:35:40;12.65;;;6.18;;
68377;SDS011;55322;48.146;11.516;2023-08-24T03:38:06;10.07;;;6.00;;
68377;SDS011;55322;48.146;11.516;2023-08-24T03:40:31;12.57;;;6.50;;
68377;SDS011;55322;48.146;11.516;2023-08-24T03:42:57;10.52;;;6.10;;
68377;SDS011;55322;48.146;11.516;2023-08-24T03:45:22;10.13;;;5.83;;
68377;SDS011;55322;48.146;11.516;2023-08-24T03:47:48;12.03;;;5.80;;
68377;SDS011;55322;48.146;11.516;2023-08-24T03:50:13;10.35;;;5.55;;
68377;SDS011;55322;48.146;11.516;2023-08-24T03:52:39;8.67;;;5.70;;
68377;SDS011;55322;48.146;11.516;2023-08-24T03:55:05;11.83;;;6.20;;
68377;SDS011;55322;48.146;11.516;2023-08-24T03:57:31;10.52;;;6.18;;
68377;SDS011;55322;48.146;11.516;2023-08-24T03:59:57;10.30;;;6.00;;
68377;SDS011;55322;48.146;11.516;2023-08-24T04:02:22;13.13;;;6.10;;
68377;SDS011;55322;48.146;11.516;2023-08-24T04:04:48;9.60;;;6.10;;
68377;SDS011;55322;48.146;11.516;2023-08-24T04:07:13;11.07;;;5.60;;
68377;SDS011;55322;48.146;11.516;2023-08-24T04:09:38;11.52;;;6.32;;
68377;SDS011;55322;48.146;11.516;2023-08-24T04:12:05;10.73;;;5.97;;
68377;SDS011;55322;48.146;11.516;2023-08-24T04:14:31;12.23;;;6.32;;
68377;SDS011;55322;48.146;11.516;2023-08-24T04:16:56;11.77;;;6.30;;
68377;SDS011;55322;48.146;11.516;2023-08-24T04:19:21;9.93;;;5.60;;
68377;SDS011;55322;48.146;11.516;2023-08-24T04:21:47;15.95;;;6.18;;
68377;SDS011;55322;48.146;11.516;2023-08-24T04:24:12;9.83;;;5.87;;
68377;SDS011;55322;48.146;11.516;2023-08-24T04:26:37;10.10;;;5.93;;
68377;SDS011;55322;48.146;11.516;2023-08-24T04:29:03;12.20;;;6.23;;
68377;SDS011;55322;48.146;11.516;2023-08-24T04:31:28;10.07;;;6.43;;
68377;SDS011;55322;48.146;11.516;2023-08-24T04:33:53;12.80;;;6.33;;
68377;SDS011;55322;48.146;11.516;2023-08-24T04:36:19;9.77;;;6.03;;
68377;SDS011;55322;48.146;11.516;2023-08-24T04:38:44;11.67;;;6.13;;
68377;SDS011;55322;48.146;11.516;2023-08-24T04:41:09;15.60;;;7.07;;
68377;SDS011;55322;48.146;11.516;2023-08-24T04:43:37;11.05;;;6.47;;
68377;SDS011;55322;48.146;11.516;2023-08-24T04:46:02;17.80;;;6.97;;
68377;SDS011;55322;48.146;11.516;2023-08-24T04:48:28;10.80;;;6.83;;
68377;SDS011;55322;48.146;11.516;2023-08-24T04:50:57;15.65;;;6.30;;
68377;SDS011;55322;48.146;11.516;2023-08-24T04:53:23;15.65;;;6.90;;
68377;SDS011;55322;48.146;11.516;2023-08-24T04:55:49;15.10;;;6.55;;
68377;SDS011;55322;48.146;11.516;2023-08-24T04:58:14;13.83;;;6.73;;
68377;SDS011;55322;48.146;11.516;2023-08-24T05:00:40;14.70;;;6.87;;
68377;SDS011;55322;48.146;11.516;2023-08-24T05:03:06;12.07;;;7.03;;
68377;SDS011;55322;48.146;11.516;2023-08-24T05:05:32;11.60;;;6.88;;
68377;SDS011;55322;48.146;11.516;2023-08-24T05:07:59;14.10;;;6.93;;
68377;SDS011;55322;48.146;11.516;2023-08-24T05:10:25;17.00;;;6.73;;
68377;SDS011;55322;48.146;11.516;2023-08-24T05:12:51;12.00;;;6.82;;
68377;SDS011;55322;48.146;11.516;2023-08-24T05:15:16;11.17;;;6.30;;
68377;SDS011;55322;48.146;11.516;2023-08-24T05:17:42;10.63;;;6.80;;
68377;SDS011;55322;48.146;11.516;2023-08-24T05:20:08;11.50;;;7.27;;
68377;SDS011;55322;48.146;11.516;2023-08-24T05:22:35;13.98;;;6.90;;
68377;SDS011;55322;48.146;11.516;2023-08-24T05:25:01;11.10;;;6.85;;
68377;SDS011;55322;48.146;11.516;2023-08-24T05:27:26;11.20;;;6.80;;
68377;SDS011;55322;48.146;11.516;2023-08-24T05:29:52;10.77;;;6.63;;
68377;SDS011;55322;48.146;11.516;2023-08-24T05:32:17;12.38;;;6.72;;
68377;SDS011;55322;48.146;11.516;2023-08-24T05:34:42;11.83;;;7.07;;
68377;SDS011;55322;48.146;11.516;2023-08-24T05:37:08;13.53;;;6.93;;
68377;SDS011;55322;48.146;11.516;2023-08-24T05:39:33;12.03;;;6.53;;
68377;SDS011;55322;48.146;11.516;2023-08-24T05:41:58;12.20;;;7.43;;
68377;SDS011;55322;48.146;11.516;2023-08-24T05:44:24;16.10;;;9.40;;
68377;SDS011;55322;48.146;11.516;2023-08-24T05:46:49;15.90;;;10.20;;
68377;SDS011;55322;48.146;11.516;2023-08-24T05:49:14;12.20;;;7.80;;
68377;SDS011;55322;48.146;11.516;2023-08-24T05:51:39;16.93;;;9.33;;
68377;SDS011;55322;48.146;11.516;2023-08-24T05:54:05;15.48;;;9.55;;
68377;SDS011;55322;48.146;11.516;2023-08-24T05:56:30;16.60;;;10.00;;
68377;SDS011;55322;48.146;11.516;2023-08-24T05:58:57;15.47;;;9.77;;
68377;SDS011;55322;48.146;11.516;2023-08-24T06:01:23;16.35;;;9.80;;
68377;SDS011;55322;48.146;11.516;2023-08-24T06:03:49;15.93;;;10.13;;
68377;SDS011;55322;48.146;11.516;2023-08-24T06:06:15;18.55;;;10.25;;
68377;SDS011;55322;48.146;11.516;2023-08-24T06:08:41;20.70;;;10.00;;
68377;SDS011;55322;48.146;11.516;2023-08-24T06:11:07;17.50;;;10.20;;
68377;SDS011;55322;48.146;11.516;2023-08-24T06:13:32;15.70;;;10.17;;
68377;SDS011;55322;48.146;11.516;2023-08-24T06:15:58;15.98;;;9.65;;
68377;SDS011;55322;48.146;11.516;2023-08-24T06:18:23;17.43;;;9.53;;
68377;SDS011;55322;48.146;11.516;2023-08-24T06:20:49;16.50;;;9.53;;
68377;SDS011;55322;48.146;11.516;2023-08-24T06:23:15;16.97;;;9.80;;
68377;SDS011;55322;48.146;11.516;2023-08-24T06:25:44;14.23;;;9.98;;
68377;SDS011;55322;48.146;11.516;2023-08-24T06:28:10;16.02;;;8.90;;
68377;SDS011;55322;48.146;11.516;2023-08-24T06:30:39;14.80;;;8.43;;
68377;SDS011;55322;48.146;11.516;2023-08-24T06:33:06;16.90;;;8.90;;
68377;SDS011;55322;48.146;11.516;2023-08-24T06:35:34;14.68;;;8.57;;
68377;SDS011;55322;48.146;11.516;2023-08-24T06:38:01;15.27;;;8.18;;
68377;SDS011;55322;48.146;11.516;2023-08-24T06:40:27;12.90;;;7.95;;
68377;SDS011;55322;48.146;11.516;2023-08-24T06:42:53;12.33;;;7.80;;
68377;SDS011;55322;48.146;11.516;2023-08-24T06:45:18;12.13;;;7.68;;
68377;SDS011;55322;48.146;11.516;2023-08-24T06:47:44;12.90;;;7.50;;
68377;SDS011;55322;48.146;11.516;2023-08-24T06:50:10;14.90;;;7.30;;
68377;SDS011;55322;48.146;11.516;2023-08-24T06:52:35;12.97;;;6.93;;
68377;SDS011;55322;48.146;11.516;2023-08-24T06:55:01;11.17;;;6.93;;
68377;SDS011;55322;48.146;11.516;2023-08-24T06:57:26;13.40;;;6.90;;
68377;SDS011;55322;48.146;11.516;2023-08-24T06:59:52;10.43;;;6.97;;
68377;SDS011;55322;48.146;11.516;2023-08-24T07:02:17;10.27;;;6.80;;
68377;SDS011;55322;48.146;11.516;2023-08-24T07:04:43;11.23;;;6.97;;
68377;SDS011;55322;48.146;11.516;2023-08-24T07:07:08;10.93;;;6.60;;
68377;SDS011;55322;48.146;11.516;2023-08-24T07:09:33;11.10;;;6.63;;
68377;SDS011;55322;48.146;11.516;2023-08-24T07:12:00;10.98;;;6.22;;
68377;SDS011;55322;48.146;11.516;2023-08-24T07:14:26;11.80;;;6.50;;
68377;SDS011;55322;48.146;11.516;2023-08-24T07:16:51;14.30;;;7.07;;
68377;SDS011;55322;48.146;11.516;2023-08-24T07:19:17;11.48;;;6.43;;
68377;SDS011;55322;48.146;11.516;2023-08-24T07:21:42;13.33;;;6.97;;
68377;SDS011;55322;48.146;11.516;2023-08-24T07:24:08;13.20;;;6.67;;
68377;SDS011;55322;48.146;11.516;2023-08-24T07:26:33;10.67;;;5.50;;
68377;SDS011;55322;48.146;11.516;2023-08-24T07:28:58;14.13;;;6.43;;
68377;SDS011;55322;48.146;11.516;2023-08-24T07:31:24;11.57;;;6.87;;
68377;SDS011;55322;48.146;11.516;2023-08-24T07:33:50;13.30;;;6.30;;
68377;SDS011;55322;48.146;11.516;2023-08-24T07:36:15;16.73;;;6.10;;
68377;SDS011;55322;48.146;11.516;2023-08-24T07:38:41;12.00;;;6.83;;
68377;SDS011;55322;48.146;11.516;2023-08-24T07:41:06;11.68;;;6.75;;
68377;SDS011;55322;48.146;11.516;2023-08-24T07:43:32;13.47;;;6.67;;
68377;SDS011;55322;48.146;11.516;2023-08-24T07:45:58;11.17;;;6.73;;
68377;SDS011;55322;48.146;11.516;2023-08-24T07:48:24;14.95;;;6.65;;
68377;SDS011;55322;48.146;11.516;2023-08-24T07:50:50;13.65;;;6.82;;
68377;SDS011;55322;48.146;11.516;2023-08-24T07:53:15;11.53;;;6.23;;
68377;SDS011;55322;48.146;11.516;2023-08-24T07:55:41;10.00;;;6.47;;
68377;SDS011;55322;48.146;11.516;2023-08-24T07:58:07;12.10;;;6.10;;
68377;SDS011;55322;48.146;11.516;2023-08-24T08:00:32;11.30;;;7.33;;
68377;SDS011;55322;48.146;11.516;2023-08-24T08:02:58;11.47;;;6.60;;
68377;SDS011;55322;48.146;11.516;2023-08-24T08:05:23;11.90;;;6.60;;
68377;SDS011;55322;48.146;11.516;2023-08-24T08:07:49;11.15;;;6.78;;
68377;SDS011;55322;48.146;11.516;2023-08-24T08:10:14;11.27;;;6.50;;
68377;SDS011;55322;48.146;11.516;2023-08-24T08:12:42;16.00;;;6.53;;
68377;SDS011;55322;48.146;11.516;2023-08-24T08:15:08;13.10;;;6.83;;
68377;SDS011;55322;48.146;11.516;2023-08-24T08:17:33;13.25;;;6.63;;
68377;SDS011;55322;48.146;11.516;2023-08-24T08:19:58;12.87;;;6.50;;
68377;SDS011;55322;48.146;11.516;2023-08-24T08:22:24;15.63;;;6.73;;
68377;SDS011;55322;48.146;11.516;2023-08-24T08:24:53;11.48;;;6.88;;
68377;SDS011;55322;48.146;11.516;2023-08-24T08:27:24;11.65;;;6.28;;
68377;SDS011;55322;48.146;11.516;2023-08-24T08:29:49;13.03;;;6.00;;
68377;SDS011;55322;48.146;11.516;2023-08-24T08:32:15;15.38;;;6.70;;
68377;SDS011;55322;48.146;11.516;2023-08-24T08:34:40;10.87;;;6.63;;
68377;SDS011;55322;48.146;11.516;2023-08-24T08:37:06;12.70;;;6.20;;
68377;SDS011;55322;48.146;11.516;2023-08-24T08:39:32;11.77;;;6.53;;
68377;SDS011;55322;48.146;11.516;2023-08-24T08:41:58;14.50;;;6.70;;
68377;SDS011;55322;48.146;11.516;2023-08-24T08:44:23;11.53;;;6.53;;
68377;SDS011;55322;48.146;11.516;2023-08-24T08:46:54;11.73;;;6.75;;
68377;SDS011;55322;48.146;11.516;2023-08-24T08:49:20;12.35;;;6.40;;
68377;SDS011;55322;48.146;11.516;2023-08-24T08:51:46;10.40;;;6.30;;
68377;SDS011;55322;48.146;11.516;2023-08-24T08:54:12;14.40;;;7.43;;
68377;SDS011;55322;48.146;11.516;2023-08-24T08:56:38;10.37;;;6.33;;
68377;SDS011;55322;48.146;11.516;2023-08-24T08:59:03;11.23;;;6.47;;
68377;SDS011;55322;48.146;11.516;2023-08-24T09:01:33;12.53;;;6.43;;
68377;SDS011;55322;48.146;11.516;2023-08-24T09:03:58;11.95;;;6.63;;
68377;SDS011;55322;48.146;11.516;2023-08-24T09:06:25;10.83;;;6.30;;
68377;SDS011;55322;48.146;11.516;2023-08-24T09:08:50;11.45;;;6.30;;
68377;SDS011;55322;48.146;11.516;2023-08-24T09:11:17;12.43;;;6.03;;
68377;SDS011;55322;48.146;11.516;2023-08-24T09:13:43;12.15;;;6.32;;
68377;SDS011;55322;48.146;11.516;2023-08-24T09:16:09;20.40;;;7.20;;
68377;SDS011;55322;48.146;11.516;2023-08-24T09:18:41;11.68;;;6.80;;
68377;SDS011;55322;48.146;11.516;2023-08-24T09:21:09;10.23;;;6.07;;
68377;SDS011;55322;48.146;11.516;2023-08-24T09:23:55;12.73;;;6.45;;
68377;SDS011;55322;48.146;11.516;2023-08-24T09:26:27;10.82;;;6.00;;
68377;SDS011;55322;48.146;11.516;2023-08-24T09:28:56;11.82;;;5.70;;
68377;SDS011;55322;48.146;11.516;2023-08-24T09:31:22;13.60;;;5.90;;
68377;SDS011;55322;48.146;11.516;2023-08-24T09:34:11;10.30;;;6.00;;
68377;SDS011;55322;48.146;11.516;2023-08-24T09:36:37;10.63;;;5.85;;
68377;SDS011;55322;48.146;11.516;2023-08-24T09:39:03;10.68;;;5.72;;
68377;SDS011;55322;48.146;11.516;2023-08-24T09:41:41;10.35;;;5.78;;
68377;SDS011;55322;48.146;11.516;2023-08-24T09:44:09;11.02;;;5.95;;
68377;SDS011;55322;48.146;11.516;2023-08-24T09:46:35;9.80;;;5.57;;
68377;SDS011;55322;48.146;11.516;2023-08-24T09:49:04;13.82;;;5.85;;
68377;SDS011;55322;48.146;11.516;2023-08-24T09:51:31;11.38;;;6.30;;
68377;SDS011;55322;48.146;11.516;2023-08-24T09:53:58;9.13;;;6.25;;
68377;SDS011;55322;48.146;11.516;2023-08-24T09:56:27;9.60;;;5.90;;
68377;SDS011;55322;48.146;11.516;2023-08-24T09:58:54;11.33;;;6.10;;
68377;SDS011;55322;48.146;11.516;2023-08-24T10:01:20;9.65;;;5.55;;
68377;SDS011;55322;48.146;11.516;2023-08-24T10:03:46;11.93;;;6.13;;
68377;SDS011;55322;48.146;11.516;2023-08-24T10:06:17;10.30;;;5.85;;
68377;SDS011;55322;48.146;11.516;2023-08-24T10:08:47;9.73;;;5.50;;
68377;SDS011;55322;48.146;11.516;2023-08-24T10:11:17;11.63;;;6.00;;
68377;SDS011;55322;48.146;11.516;2023-08-24T10:13:58;12.55;;;5.70;;
68377;SDS011;55322;48.146;11.516;2023-08-24T10:16:32;11.20;;;5.60;;
68377;SDS011;55322;48.146;11.516;2023-08-24T10:18:58;10.02;;;5.07;;
68377;SDS011;55322;48.146;11.516;2023-08-24T10:21:25;10.00;;;5.20;;
68377;SDS011;55322;48.146;11.516;2023-08-24T10:23:52;9.27;;;4.87;;
68377;SDS011;55322;48.146;11.516;2023-08-24T10:26:19;8.75;;;5.00;;
68377;SDS011;55322;48.146;11.516;2023-08-24T10:28:46;10.75;;;5.00;;
68377;SDS011;55322;48.146;11.516;2023-08-24T10:31:11;11.70;;;5.20;;
68377;SDS011;55322;48.146;11.516;2023-08-24T10:33:37;11.80;;;4.70;;
68377;SDS011;55322;48.146;11.516;2023-08-24T10:36:04;8.80;;;4.38;;
68377;SDS011;55322;48.146;11.516;2023-08-24T10:38:31;11.30;;;4.82;;
68377;SDS011;55322;48.146;11.516;2023-08-24T10:41:03;10.40;;;4.97;;
68377;SDS011;55322;48.146;11.516;2023-08-24T10:43:30;10.00;;;4.60;;
68377;SDS011;55322;48.146;11.516;2023-08-24T10:45:59;10.48;;;4.80;;
68377;SDS011;55322;48.146;11.516;2023-08-24T10:49:08;10.48;;;4.22;;
68377;SDS011;55322;48.146;11.516;2023-08-24T10:53:44;9.23;;;4.90;;
68377;SDS011;55322;48.146;11.516;2023-08-24T10:56:11;11.17;;;4.90;;
68377;SDS011;55322;48.146;11.516;2023-08-24T10:58:37;10.80;;;4.68;;
68377;SDS011;55322;48.146;11.516;2023-08-24T11:01:03;10.40;;;4.97;;
68377;SDS011;55322;48.146;11.516;2023-08-24T11:03:31;10.93;;;5.00;;
68377;SDS011;55322;48.146;11.516;2023-08-24T11:05:58;12.13;;;5.00;;
68377;SDS011;55322;48.146;11.516;2023-08-24T11:08:43;9.50;;;4.90;;
68377;SDS011;55322;48.146;11.516;2023-08-24T11:11:22;13.43;;;4.72;;
68377;SDS011;55322;48.146;11.516;2023-08-24T11:17:16;10.83;;;4.90;;
68377;SDS011;55322;48.146;11.516;2023-08-24T11:19:49;14.63;;;4.53;;
68377;SDS011;55322;48.146;11.516;2023-08-24T11:22:17;10.95;;;4.88;;
68377;SDS011;55322;48.146;11.516;2023-08-24T11:24:43;9.30;;;4.88;;
68377;SDS011;55322;48.146;11.516;2023-08-24T11:27:08;13.53;;;4.30;;
68377;SDS011;55322;48.146;11.516;2023-08-24T11:29:34;13.80;;;3.97;;
68377;SDS011;55322;48.146;11.516;2023-08-24T11:31:59;16.10;;;4.30;;
68377;SDS011;55322;48.146;11.516;2023-08-24T11:34:25;13.15;;;4.45;;
68377;SDS011;55322;48.146;11.516;2023-08-24T11:36:50;10.30;;;3.60;;
68377;SDS011;55322;48.146;11.516;2023-08-24T11:39:16;12.50;;;3.93;;
68377;SDS011;55322;48.146;11.516;2023-08-24T11:41:44;10.80;;;3.92;;
68377;SDS011;55322;48.146;11.516;2023-08-24T11:44:10;18.10;;;4.10;;
68377;SDS011;55322;48.146;11.516;2023-08-24T11:46:36;10.70;;;3.70;;
68377;SDS011;55322;48.146;11.516;2023-08-24T11:49:04;11.75;;;4.18;;
68377;SDS011;55322;48.146;11.516;2023-08-24T12:32:56;12.25;;;3.50;;
68377;SDS011;55322;48.146;11.516;2023-08-24T12:35:21;15.17;;;3.60;;
68377;SDS011;55322;48.146;11.516;2023-08-24T12:37:46;13.87;;;3.80;;
68377;SDS011;55322;48.146;11.516;2023-08-24T12:40:12;17.63;;;3.83;;
68377;SDS011;55322;48.146;11.516;2023-08-24T12:42:37;15.85;;;3.60;;
68377;SDS011;55322;48.146;11.516;2023-08-24T12:45:04;12.17;;;3.30;;
68377;SDS011;55322;48.146;11.516;2023-08-24T12:47:29;15.30;;;3.35;;
68377;SDS011;55322;48.146;11.516;2023-08-24T12:49:55;12.00;;;3.13;;
68377;SDS011;55322;48.146;11.516;2023-08-24T12:52:21;13.23;;;3.80;;
68377;SDS011;55322;48.146;11.516;2023-08-24T12:54:47;12.23;;;3.50;;
68377;SDS011;55322;48.146;11.516;2023-08-24T12:57:12;19.23;;;3.80;;
68377;SDS011;55322;48.146;11.516;2023-08-24T12:59:38;12.60;;;3.90;;
68377;SDS011;55322;48.146;11.516;2023-08-24T13:02:03;16.63;;;4.37;;
68377;SDS011;55322;48.146;11.516;2023-08-24T13:04:29;12.60;;;4.10;;
68377;SDS011;55322;48.146;11.516;2023-08-24T13:06:54;10.57;;;3.40;;
68377;SDS011;55322;48.146;11.516;2023-08-24T13:09:20;14.98;;;3.67;;
68377;SDS011;55322;48.146;11.516;2023-08-24T13:11:45;12.10;;;4.37;;
68377;SDS011;55322;48.146;11.516;2023-08-24T13:14:11;13.77;;;3.83;;
68377;SDS011;55322;48.146;11.516;2023-08-24T13:16:36;13.10;;;3.77;;
68377;SDS011;55322;48.146;11.516;2023-08-24T13:19:02;11.30;;;3.72;;
68377;SDS011;55322;48.146;11.516;2023-08-24T13:21:27;15.47;;;4.20;;
68377;SDS011;55322;48.146;11.516;2023-08-24T13:23:53;13.10;;;3.77;;
68377;SDS011;55322;48.146;11.516;2023-08-24T13:26:19;10.50;;;3.70;;
68377;SDS011;55322;48.146;11.516;2023-08-24T13:28:45;17.07;;;4.13;;
68377;SDS011;55322;48.146;11.516;2023-08-24T13:31:14;14.48;;;3.92;;
68377;SDS011;55322;48.146;11.516;2023-08-24T13:33:39;16.07;;;3.90;;
68377;SDS011;55322;48.146;11.516;2023-08-24T13:36:04;14.20;;;3.90;;
68377;SDS011;55322;48.146;11.516;2023-08-24T13:38:30;15.73;;;4.23;;
68377;SDS011;55322;48.146;11.516;2023-08-24T13:40:55;16.40;;;3.90;;
68377;SDS011;55322;48.146;11.516;2023-08-24T13:43:21;17.13;;;4.37;;
68377;SDS011;55322;48.146;11.516;2023-08-24T13:45:46;14.18;;;4.20;;
68377;SDS011;55322;48.146;11.516;2023-08-24T13:48:11;11.33;;;3.90;;
68377;SDS011;55322;48.146;11.516;2023-08-24T13:50:37;12.47;;;4.10;;
68377;SDS011;55322;48.146;11.516;2023-08-24T13:53:02;18.00;;;4.30;;
68377;SDS011;55322;48.146;11.516;2023-08-24T13:55:27;10.97;;;4.00;;
68377;SDS011;55322;48.146;11.516;2023-08-24T13:57:54;11.43;;;4.22;;
68377;SDS011;55322;48.146;11.516;2023-08-24T14:00:19;15.23;;;3.80;;
68377;SDS011;55322;48.146;11.516;2023-08-24T14:02:45;14.48;;;4.18;;
68377;SDS011;55322;48.146;11.516;2023-08-24T14:05:10;15.27;;;4.20;;
68377;SDS011;55322;48.146;11.516;2023-08-24T14:07:36;12.10;;;4.27;;
68377;SDS011;55322;48.146;11.516;2023-08-24T14:10:02;21.45;;;4.60;;
68377;SDS011;55322;48.146;11.516;2023-08-24T14:12:28;13.80;;;4.40;;
68377;SDS011;55322;48.146;11.516;2023-08-24T14:14:54;12.13;;;4.47;;
68377;SDS011;55322;48.146;11.516;2023-08-24T14:17:19;14.67;;;4.23;;
68377;SDS011;55322;48.146;11.516;2023-08-24T14:19:45;13.07;;;3.97;;
68377;SDS011;55322;48.146;11.516;2023-08-24T14:22:10;15.10;;;4.27;;
68377;SDS011;55322;48.146;11.516;2023-08-24T14:24:36;13.33;;;4.30;;
68377;SDS011;55322;48.146;11.516;2023-08-24T14:27:01;18.50;;;4.47;;
68377;SDS011;55322;48.146;11.516;2023-08-24T14:29:26;14.18;;;4.25;;
68377;SDS011;55322;48.146;11.516;2023-08-24T14:31:52;16.40;;;4.43;;
68377;SDS011;55322;48.146;11.516;2023-08-24T14:34:17;12.03;;;4.53;;
68377;SDS011;55322;48.146;11.516;2023-08-24T14:36:42;16.33;;;4.73;;
68377;SDS011;55322;48.146;11.516;2023-08-24T14:39:08;12.97;;;4.00;;
68377;SDS011;55322;48.146;11.516;2023-08-24T14:41:33;12.63;;;3.93;;
68377;SDS011;55322;48.146;11.516;2023-08-24T14:43:58;12.87;;;4.10;;
68377;SDS011;55322;48.146;11.516;2023-08-24T14:46:24;12.93;;;3.57;;
68377;SDS011;55322;48.146;11.516;2023-08-24T14:48:49;14.70;;;4.57;;
68377;SDS011;55322;48.146;11.516;2023-08-24T14:51:14;16.23;;;4.83;;
68377;SDS011;55322;48.146;11.516;2023-08-24T14:53:40;12.87;;;4.97;;
68377;SDS011;55322;48.146;11.516;2023-08-24T14:56:05;14.63;;;4.07;;
68377;SDS011;55322;48.146;11.516;2023-08-24T14:58:31;20.15;;;5.28;;
68377;SDS011;55322;48.146;11.516;2023-08-24T15:00:57;12.47;;;4.77;;
68377;SDS011;55322;48.146;11.516;2023-08-24T15:03:23;12.67;;;4.30;;
68377;SDS011;55322;48.146;11.516;2023-08-24T15:06:02;13.43;;;4.28;;
68377;SDS011;55322;48.146;11.516;2023-08-24T15:08:29;13.95;;;5.00;;